sensor_id;sensor_type;location;lat;lon;timestamp;P1;durP1;ratioP1;P2;durP2;ratioP2
10985;SDS011;5546;48.714;8.738;2023-05-09T00:01:16;13.53;;;12.13;;
10985;SDS011;5546;48.714;8.738;2023-05-09T00:03:42;14.53;;;11.27;;
10985;SDS011;5546;48.714;8.738;2023-05-09T00:06:08;11.87;;;10.43;;
10985;SDS011;5546;48.714;8.738;2023-05-09T00:08:35;15.77;;;13.30;;
10985;SDS011;5546;48.714;8.738;2023-05-09T00:11:02;13.17;;;11.80;;
10985;SDS011;5546;48.714;8.738;2023-05-09T00:13:30;16.00;;;13.20;;
10985;SDS011;5546;48.714;8.738;2023-05-09T00:15:56;16.70;;;13.80;;
10985;SDS011;5546;48.714;8.738;2023-05-09T00:18:22;15.87;;;11.60;;
10985;SDS011;5546;48.714;8.738;2023-05-09T00:20:48;14.47;;;12.57;;
10985;SDS011;5546;48.714;8.738;2023-05-09T00:23:14;14.97;;;11.77;;
10985;SDS011;5546;48.714;8.738;2023-05-09T00:25:40;12.67;;;11.37;;
10985;SDS011;5546;48.714;8.738;2023-05-09T00:28:06;14.03;;;11.93;;
10985;SDS011;5546;48.714;8.738;2023-05-09T00:30:32;15.10;;;12.70;;
10985;SDS011;5546;48.714;8.738;2023-05-09T00:32:58;15.20;;;12.90;;
10985;SDS011;5546;48.714;8.738;2023-05-09T00:35:25;14.03;;;11.80;;
10985;SDS011;5546;48.714;8.738;2023-05-09T00:37:50;15.47;;;11.20;;
10985;SDS011;5546;48.714;8.738;2023-05-09T00:40:16;14.63;;;12.60;;
10985;SDS011;5546;48.714;8.738;2023-05-09T00:42:42;17.37;;;13.33;;
10985;SDS011;5546;48.714;8.738;2023-05-09T00:45:08;14.97;;;13.27;;
10985;SDS011;5546;48.714;8.738;2023-05-09T00:47:34;15.70;;;11.70;;
10985;SDS011;5546;48.714;8.738;2023-05-09T00:50:00;12.87;;;11.30;;
10985;SDS011;5546;48.714;8.738;2023-05-09T00:52:26;14.53;;;12.20;;
10985;SDS011;5546;48.714;8.738;2023-05-09T00:54:53;15.43;;;12.13;;
10985;SDS011;5546;48.714;8.738;2023-05-09T00:57:19;18.83;;;11.87;;
10985;SDS011;5546;48.714;8.738;2023-05-09T00:59:45;20.07;;;12.53;;
10985;SDS011;5546;48.714;8.738;2023-05-09T01:02:11;18.30;;;13.13;;
10985;SDS011;5546;48.714;8.738;2023-05-09T01:04:36;14.67;;;12.77;;
10985;SDS011;5546;48.714;8.738;2023-05-09T01:07:05;16.27;;;14.10;;
10985;SDS011;5546;48.714;8.738;2023-05-09T01:09:46;20.03;;;13.10;;
10985;SDS011;5546;48.714;8.738;2023-05-09T01:12:45;14.20;;;12.30;;
10985;SDS011;5546;48.714;8.738;2023-05-09T01:15:35;13.63;;;12.17;;
10985;SDS011;5546;48.714;8.738;2023-05-09T01:20:42;13.37;;;11.97;;
10985;SDS011;5546;48.714;8.738;2023-05-09T01:23:22;13.80;;;11.43;;
10985;SDS011;5546;48.714;8.738;2023-05-09T01:32:02;13.60;;;11.57;;
10985;SDS011;5546;48.714;8.738;2023-05-09T01:34:37;13.80;;;12.00;;
10985;SDS011;5546;48.714;8.738;2023-05-09T01:37:04;15.07;;;11.17;;
10985;SDS011;5546;48.714;8.738;2023-05-09T01:39:32;14.47;;;11.47;;
10985;SDS011;5546;48.714;8.738;2023-05-09T01:41:59;14.40;;;10.80;;
10985;SDS011;5546;48.714;8.738;2023-05-09T01:44:28;12.73;;;10.63;;
10985;SDS011;5546;48.714;8.738;2023-05-09T01:46:59;12.77;;;10.73;;
10985;SDS011;5546;48.714;8.738;2023-05-09T01:49:25;12.83;;;9.80;;
10985;SDS011;5546;48.714;8.738;2023-05-09T01:51:54;13.27;;;11.07;;
10985;SDS011;5546;48.714;8.738;2023-05-09T01:54:21;14.33;;;10.87;;
10985;SDS011;5546;48.714;8.738;2023-05-09T01:56:50;12.80;;;10.10;;
10985;SDS011;5546;48.714;8.738;2023-05-09T01:59:16;11.77;;;10.57;;
10985;SDS011;5546;48.714;8.738;2023-05-09T02:01:43;11.60;;;10.30;;
10985;SDS011;5546;48.714;8.738;2023-05-09T02:04:10;13.83;;;10.50;;
10985;SDS011;5546;48.714;8.738;2023-05-09T02:06:39;14.50;;;10.57;;
10985;SDS011;5546;48.714;8.738;2023-05-09T02:09:08;13.67;;;10.53;;
10985;SDS011;5546;48.714;8.738;2023-05-09T02:11:34;14.60;;;10.43;;
10985;SDS011;5546;48.714;8.738;2023-05-09T02:14:00;11.70;;;10.33;;
10985;SDS011;5546;48.714;8.738;2023-05-09T02:16:26;12.53;;;10.47;;
10985;SDS011;5546;48.714;8.738;2023-05-09T02:18:52;13.30;;;10.90;;
10985;SDS011;5546;48.714;8.738;2023-05-09T02:21:18;10.57;;;9.47;;
10985;SDS011;5546;48.714;8.738;2023-05-09T02:23:44;11.40;;;10.30;;
10985;SDS011;5546;48.714;8.738;2023-05-09T02:26:10;13.43;;;10.13;;
10985;SDS011;5546;48.714;8.738;2023-05-09T02:28:36;11.57;;;10.23;;
10985;SDS011;5546;48.714;8.738;2023-05-09T02:31:03;14.03;;;10.73;;
10985;SDS011;5546;48.714;8.738;2023-05-09T02:33:33;11.30;;;9.33;;
10985;SDS011;5546;48.714;8.738;2023-05-09T02:36:01;11.47;;;10.27;;
10985;SDS011;5546;48.714;8.738;2023-05-09T02:38:28;11.23;;;10.03;;
10985;SDS011;5546;48.714;8.738;2023-05-09T02:40:54;11.37;;;9.90;;
10985;SDS011;5546;48.714;8.738;2023-05-09T02:43:20;12.37;;;9.87;;
10985;SDS011;5546;48.714;8.738;2023-05-09T02:45:46;11.87;;;10.07;;
10985;SDS011;5546;48.714;8.738;2023-05-09T02:48:12;12.67;;;10.70;;
10985;SDS011;5546;48.714;8.738;2023-05-09T02:50:38;11.63;;;10.33;;
10985;SDS011;5546;48.714;8.738;2023-05-09T02:53:06;13.10;;;10.00;;
10985;SDS011;5546;48.714;8.738;2023-05-09T02:55:32;12.17;;;10.10;;
10985;SDS011;5546;48.714;8.738;2023-05-09T02:57:58;14.07;;;9.93;;
10985;SDS011;5546;48.714;8.738;2023-05-09T03:00:25;12.53;;;10.00;;
10985;SDS011;5546;48.714;8.738;2023-05-09T03:02:50;11.93;;;10.20;;
10985;SDS011;5546;48.714;8.738;2023-05-09T03:05:16;12.50;;;10.47;;
10985;SDS011;5546;48.714;8.738;2023-05-09T03:07:42;13.33;;;10.63;;
10985;SDS011;5546;48.714;8.738;2023-05-09T03:10:08;11.53;;;10.03;;
10985;SDS011;5546;48.714;8.738;2023-05-09T03:12:36;12.47;;;10.10;;
10985;SDS011;5546;48.714;8.738;2023-05-09T03:15:03;11.93;;;10.00;;
10985;SDS011;5546;48.714;8.738;2023-05-09T03:17:31;12.90;;;9.90;;
10985;SDS011;5546;48.714;8.738;2023-05-09T03:19:57;12.13;;;10.03;;
10985;SDS011;5546;48.714;8.738;2023-05-09T03:22:22;13.63;;;9.63;;
10985;SDS011;5546;48.714;8.738;2023-05-09T03:24:48;11.60;;;10.40;;
10985;SDS011;5546;48.714;8.738;2023-05-09T03:27:14;18.57;;;11.17;;
10985;SDS011;5546;48.714;8.738;2023-05-09T03:29:40;14.77;;;9.83;;
10985;SDS011;5546;48.714;8.738;2023-05-09T03:32:06;11.10;;;9.90;;
10985;SDS011;5546;48.714;8.738;2023-05-09T03:34:32;11.90;;;10.47;;
10985;SDS011;5546;48.714;8.738;2023-05-09T03:36:58;12.33;;;10.30;;
10985;SDS011;5546;48.714;8.738;2023-05-09T03:39:24;9.73;;;8.60;;
10985;SDS011;5546;48.714;8.738;2023-05-09T03:41:50;12.30;;;9.97;;
10985;SDS011;5546;48.714;8.738;2023-05-09T03:44:16;11.33;;;9.40;;
10985;SDS011;5546;48.714;8.738;2023-05-09T03:46:42;11.87;;;9.20;;
10985;SDS011;5546;48.714;8.738;2023-05-09T03:49:07;12.77;;;9.93;;
10985;SDS011;5546;48.714;8.738;2023-05-09T03:51:33;11.77;;;10.13;;
10985;SDS011;5546;48.714;8.738;2023-05-09T03:53:59;12.00;;;9.50;;
10985;SDS011;5546;48.714;8.738;2023-05-09T03:56:24;15.10;;;9.80;;
10985;SDS011;5546;48.714;8.738;2023-05-09T03:58:50;16.23;;;9.37;;
10985;SDS011;5546;48.714;8.738;2023-05-09T04:01:16;11.33;;;8.57;;
10985;SDS011;5546;48.714;8.738;2023-05-09T04:03:42;11.97;;;9.10;;
10985;SDS011;5546;48.714;8.738;2023-05-09T04:06:08;11.30;;;9.17;;
10985;SDS011;5546;48.714;8.738;2023-05-09T04:08:34;13.90;;;10.10;;
10985;SDS011;5546;48.714;8.738;2023-05-09T04:11:00;13.13;;;9.60;;
10985;SDS011;5546;48.714;8.738;2023-05-09T04:13:26;11.20;;;9.10;;
10985;SDS011;5546;48.714;8.738;2023-05-09T04:15:53;10.67;;;9.30;;
10985;SDS011;5546;48.714;8.738;2023-05-09T04:18:19;11.10;;;9.23;;
10985;SDS011;5546;48.714;8.738;2023-05-09T04:20:45;12.53;;;8.60;;
10985;SDS011;5546;48.714;8.738;2023-05-09T04:23:10;10.90;;;9.53;;
10985;SDS011;5546;48.714;8.738;2023-05-09T04:25:36;11.10;;;9.17;;
10985;SDS011;5546;48.714;8.738;2023-05-09T04:28:01;9.87;;;8.93;;
10985;SDS011;5546;48.714;8.738;2023-05-09T04:30:27;9.77;;;8.77;;
10985;SDS011;5546;48.714;8.738;2023-05-09T04:32:53;10.50;;;9.30;;
10985;SDS011;5546;48.714;8.738;2023-05-09T04:35:19;11.13;;;9.13;;
10985;SDS011;5546;48.714;8.738;2023-05-09T04:37:45;9.67;;;8.67;;
10985;SDS011;5546;48.714;8.738;2023-05-09T04:40:11;10.23;;;9.23;;
10985;SDS011;5546;48.714;8.738;2023-05-09T04:42:37;10.87;;;9.13;;
10985;SDS011;5546;48.714;8.738;2023-05-09T04:45:03;10.43;;;9.33;;
10985;SDS011;5546;48.714;8.738;2023-05-09T04:47:29;10.77;;;9.00;;
10985;SDS011;5546;48.714;8.738;2023-05-09T04:49:55;9.60;;;8.60;;
10985;SDS011;5546;48.714;8.738;2023-05-09T04:52:21;9.50;;;8.30;;
10985;SDS011;5546;48.714;8.738;2023-05-09T04:54:47;9.33;;;8.43;;
10985;SDS011;5546;48.714;8.738;2023-05-09T04:57:13;10.93;;;8.37;;
10985;SDS011;5546;48.714;8.738;2023-05-09T04:59:38;9.40;;;8.50;;
10985;SDS011;5546;48.714;8.738;2023-05-09T05:02:04;9.83;;;8.83;;
10985;SDS011;5546;48.714;8.738;2023-05-09T05:04:30;8.33;;;7.53;;
10985;SDS011;5546;48.714;8.738;2023-05-09T05:06:56;8.97;;;8.07;;
10985;SDS011;5546;48.714;8.738;2023-05-09T05:09:22;9.40;;;8.50;;
10985;SDS011;5546;48.714;8.738;2023-05-09T05:11:48;9.73;;;8.73;;
10985;SDS011;5546;48.714;8.738;2023-05-09T05:14:14;9.63;;;8.60;;
10985;SDS011;5546;48.714;8.738;2023-05-09T05:16:40;9.80;;;8.43;;
10985;SDS011;5546;48.714;8.738;2023-05-09T05:19:06;8.80;;;7.90;;
10985;SDS011;5546;48.714;8.738;2023-05-09T05:21:32;8.67;;;7.77;;
10985;SDS011;5546;48.714;8.738;2023-05-09T05:23:58;8.93;;;8.03;;
10985;SDS011;5546;48.714;8.738;2023-05-09T05:26:24;8.77;;;7.87;;
10985;SDS011;5546;48.714;8.738;2023-05-09T05:28:50;9.20;;;8.30;;
10985;SDS011;5546;48.714;8.738;2023-05-09T05:31:19;9.07;;;8.07;;
10985;SDS011;5546;48.714;8.738;2023-05-09T05:33:45;9.60;;;8.00;;
10985;SDS011;5546;48.714;8.738;2023-05-09T05:36:11;8.73;;;7.93;;
10985;SDS011;5546;48.714;8.738;2023-05-09T05:38:36;8.53;;;7.73;;
10985;SDS011;5546;48.714;8.738;2023-05-09T05:41:02;11.47;;;7.90;;
10985;SDS011;5546;48.714;8.738;2023-05-09T05:43:28;8.33;;;7.50;;
10985;SDS011;5546;48.714;8.738;2023-05-09T05:45:54;8.50;;;7.70;;
10985;SDS011;5546;48.714;8.738;2023-05-09T05:48:20;7.50;;;6.80;;
10985;SDS011;5546;48.714;8.738;2023-05-09T05:50:46;8.23;;;7.43;;
10985;SDS011;5546;48.714;8.738;2023-05-09T05:53:12;7.07;;;6.33;;
10985;SDS011;5546;48.714;8.738;2023-05-09T05:55:38;6.90;;;6.30;;
10985;SDS011;5546;48.714;8.738;2023-05-09T05:58:04;6.27;;;5.77;;
10985;SDS011;5546;48.714;8.738;2023-05-09T06:00:29;6.63;;;6.03;;
10985;SDS011;5546;48.714;8.738;2023-05-09T06:02:55;6.30;;;5.70;;
10985;SDS011;5546;48.714;8.738;2023-05-09T06:05:21;8.53;;;6.00;;
10985;SDS011;5546;48.714;8.738;2023-05-09T06:07:46;6.50;;;5.90;;
10985;SDS011;5546;48.714;8.738;2023-05-09T06:10:12;6.27;;;5.67;;
10985;SDS011;5546;48.714;8.738;2023-05-09T06:12:40;6.43;;;5.83;;
10985;SDS011;5546;48.714;8.738;2023-05-09T06:15:06;6.30;;;5.70;;
10985;SDS011;5546;48.714;8.738;2023-05-09T06:17:32;5.93;;;5.40;;
10985;SDS011;5546;48.714;8.738;2023-05-09T06:19:58;6.40;;;5.90;;
10985;SDS011;5546;48.714;8.738;2023-05-09T06:22:24;6.83;;;6.23;;
10985;SDS011;5546;48.714;8.738;2023-05-09T06:24:50;5.60;;;5.10;;
10985;SDS011;5546;48.714;8.738;2023-05-09T06:27:15;6.10;;;5.50;;
10985;SDS011;5546;48.714;8.738;2023-05-09T06:29:41;6.40;;;5.80;;
10985;SDS011;5546;48.714;8.738;2023-05-09T06:32:07;6.67;;;5.70;;
10985;SDS011;5546;48.714;8.738;2023-05-09T06:34:33;6.90;;;6.20;;
10985;SDS011;5546;48.714;8.738;2023-05-09T06:36:58;6.00;;;5.50;;
10985;SDS011;5546;48.714;8.738;2023-05-09T06:39:24;5.37;;;4.87;;
10985;SDS011;5546;48.714;8.738;2023-05-09T06:41:50;5.30;;;4.80;;
10985;SDS011;5546;48.714;8.738;2023-05-09T06:44:16;5.17;;;4.77;;
10985;SDS011;5546;48.714;8.738;2023-05-09T06:46:41;5.00;;;4.60;;
10985;SDS011;5546;48.714;8.738;2023-05-09T06:49:07;5.90;;;4.45;;
10985;SDS011;5546;48.714;8.738;2023-05-09T06:51:33;5.05;;;4.65;;
10985;SDS011;5546;48.714;8.738;2023-05-09T06:53:58;5.13;;;4.70;;
10985;SDS011;5546;48.714;8.738;2023-05-09T06:56:24;6.75;;;4.28;;
10985;SDS011;5546;48.714;8.738;2023-05-09T06:58:50;4.75;;;4.35;;
10985;SDS011;5546;48.714;8.738;2023-05-09T07:01:16;4.85;;;4.43;;
10985;SDS011;5546;48.714;8.738;2023-05-09T07:03:42;4.68;;;4.32;;
10985;SDS011;5546;48.714;8.738;2023-05-09T07:06:08;4.82;;;4.43;;
10985;SDS011;5546;48.714;8.738;2023-05-09T07:08:33;4.90;;;4.50;;
10985;SDS011;5546;48.714;8.738;2023-05-09T07:10:59;6.80;;;4.22;;
10985;SDS011;5546;48.714;8.738;2023-05-09T07:13:25;4.55;;;4.15;;
10985;SDS011;5546;48.714;8.738;2023-05-09T07:15:50;4.82;;;4.43;;
10985;SDS011;5546;48.714;8.738;2023-05-09T07:18:16;5.18;;;4.78;;
10985;SDS011;5546;48.714;8.738;2023-05-09T07:20:41;4.95;;;4.45;;
10985;SDS011;5546;48.714;8.738;2023-05-09T07:23:07;4.85;;;4.45;;
10985;SDS011;5546;48.714;8.738;2023-05-09T07:25:32;4.93;;;4.53;;
10985;SDS011;5546;48.714;8.738;2023-05-09T07:27:58;4.60;;;4.20;;
10985;SDS011;5546;48.714;8.738;2023-05-09T07:30:23;4.43;;;3.72;;
10985;SDS011;5546;48.714;8.738;2023-05-09T07:32:49;4.70;;;4.32;;
10985;SDS011;5546;48.714;8.738;2023-05-09T07:35:15;5.38;;;4.28;;
10985;SDS011;5546;48.714;8.738;2023-05-09T07:37:41;4.95;;;4.40;;
10985;SDS011;5546;48.714;8.738;2023-05-09T07:40:07;5.35;;;4.47;;
10985;SDS011;5546;48.714;8.738;2023-05-09T07:42:33;4.60;;;4.25;;
10985;SDS011;5546;48.714;8.738;2023-05-09T07:44:59;5.18;;;4.78;;
10985;SDS011;5546;48.714;8.738;2023-05-09T07:47:24;4.47;;;4.07;;
10985;SDS011;5546;48.714;8.738;2023-05-09T07:49:50;5.00;;;4.50;;
10985;SDS011;5546;48.714;8.738;2023-05-09T07:52:16;4.53;;;4.13;;
10985;SDS011;5546;48.714;8.738;2023-05-09T07:54:42;5.20;;;4.55;;
10985;SDS011;5546;48.714;8.738;2023-05-09T07:57:08;4.53;;;4.13;;
10985;SDS011;5546;48.714;8.738;2023-05-09T07:59:34;4.75;;;3.97;;
10985;SDS011;5546;48.714;8.738;2023-05-09T08:01:59;4.63;;;4.22;;
10985;SDS011;5546;48.714;8.738;2023-05-09T08:04:25;4.38;;;3.80;;
10985;SDS011;5546;48.714;8.738;2023-05-09T08:06:51;4.68;;;4.30;;
10985;SDS011;5546;48.714;8.738;2023-05-09T08:09:16;5.22;;;4.45;;
10985;SDS011;5546;48.714;8.738;2023-05-09T08:11:42;4.85;;;4.45;;
10985;SDS011;5546;48.714;8.738;2023-05-09T08:14:08;5.57;;;4.45;;
10985;SDS011;5546;48.714;8.738;2023-05-09T08:16:34;5.03;;;4.63;;
10985;SDS011;5546;48.714;8.738;2023-05-09T08:19:00;5.07;;;4.68;;
10985;SDS011;5546;48.714;8.738;2023-05-09T08:21:26;5.40;;;4.90;;
10985;SDS011;5546;48.714;8.738;2023-05-09T08:23:52;5.47;;;5.07;;
10985;SDS011;5546;48.714;8.738;2023-05-09T08:26:17;4.65;;;4.25;;
10985;SDS011;5546;48.714;8.738;2023-05-09T08:28:43;5.35;;;4.85;;
10985;SDS011;5546;48.714;8.738;2023-05-09T08:31:09;5.40;;;4.93;;
10985;SDS011;5546;48.714;8.738;2023-05-09T08:33:34;4.90;;;4.35;;
10985;SDS011;5546;48.714;8.738;2023-05-09T08:36:00;6.45;;;4.50;;
10985;SDS011;5546;48.714;8.738;2023-05-09T08:38:26;4.72;;;4.40;;
10985;SDS011;5546;48.714;8.738;2023-05-09T08:40:52;5.28;;;4.78;;
10985;SDS011;5546;48.714;8.738;2023-05-09T08:43:23;5.80;;;5.30;;
10985;SDS011;5546;48.714;8.738;2023-05-09T08:45:52;7.57;;;6.47;;
10985;SDS011;5546;48.714;8.738;2023-05-09T08:48:22;6.43;;;5.78;;
10985;SDS011;5546;48.714;8.738;2023-05-09T08:50:48;7.68;;;4.60;;
10985;SDS011;5546;48.714;8.738;2023-05-09T08:53:14;4.95;;;4.55;;
10985;SDS011;5546;48.714;8.738;2023-05-09T08:55:40;7.63;;;5.75;;
10985;SDS011;5546;48.714;8.738;2023-05-09T08:58:06;5.88;;;5.28;;
10985;SDS011;5546;48.714;8.738;2023-05-09T09:00:33;6.03;;;5.30;;
10985;SDS011;5546;48.714;8.738;2023-05-09T09:03:02;6.63;;;6.05;;
10985;SDS011;5546;48.714;8.738;2023-05-09T09:05:30;6.28;;;5.20;;
10985;SDS011;5546;48.714;8.738;2023-05-09T09:08:00;7.55;;;4.85;;
10985;SDS011;5546;48.714;8.738;2023-05-09T09:10:27;4.88;;;4.47;;
10985;SDS011;5546;48.714;8.738;2023-05-09T09:12:56;4.70;;;4.18;;
10985;SDS011;5546;48.714;8.738;2023-05-09T09:15:23;6.03;;;4.63;;
10985;SDS011;5546;48.714;8.738;2023-05-09T09:17:53;5.20;;;4.57;;
10985;SDS011;5546;48.714;8.738;2023-05-09T09:20:20;5.72;;;3.80;;
10985;SDS011;5546;48.714;8.738;2023-05-09T09:22:50;4.18;;;3.70;;
10985;SDS011;5546;48.714;8.738;2023-05-09T09:25:19;5.90;;;3.33;;
10985;SDS011;5546;48.714;8.738;2023-05-09T09:27:45;3.92;;;2.80;;
10985;SDS011;5546;48.714;8.738;2023-05-09T09:30:11;3.13;;;2.60;;
10985;SDS011;5546;48.714;8.738;2023-05-09T09:32:37;3.05;;;2.83;;
10985;SDS011;5546;48.714;8.738;2023-05-09T09:35:06;3.40;;;3.10;;
10985;SDS011;5546;48.714;8.738;2023-05-09T09:37:33;3.47;;;2.80;;
10985;SDS011;5546;48.714;8.738;2023-05-09T09:40:00;3.55;;;2.50;;
10985;SDS011;5546;48.714;8.738;2023-05-09T09:42:26;5.82;;;2.88;;
10985;SDS011;5546;48.714;8.738;2023-05-09T09:45:08;2.28;;;2.08;;
10985;SDS011;5546;48.714;8.738;2023-05-09T09:47:35;3.72;;;2.47;;
10985;SDS011;5546;48.714;8.738;2023-05-09T09:50:19;3.00;;;2.67;;
10985;SDS011;5546;48.714;8.738;2023-05-09T09:52:50;2.40;;;2.20;;
10985;SDS011;5546;48.714;8.738;2023-05-09T09:55:17;2.50;;;2.30;;
10985;SDS011;5546;48.714;8.738;2023-05-09T09:57:43;3.10;;;1.90;;
10985;SDS011;5546;48.714;8.738;2023-05-09T10:00:13;1.83;;;1.73;;
10985;SDS011;5546;48.714;8.738;2023-05-09T10:02:50;5.32;;;1.88;;
10985;SDS011;5546;48.714;8.738;2023-05-09T10:05:20;4.13;;;1.90;;
10985;SDS011;5546;48.714;8.738;2023-05-09T10:10:26;2.38;;;1.95;;
10985;SDS011;5546;48.714;8.738;2023-05-09T10:12:55;2.00;;;1.80;;
10985;SDS011;5546;48.714;8.738;2023-05-09T10:15:22;1.63;;;1.52;;
10985;SDS011;5546;48.714;8.738;2023-05-09T10:17:55;2.70;;;2.03;;
10985;SDS011;5546;48.714;8.738;2023-05-09T10:20:22;1.90;;;1.73;;
10985;SDS011;5546;48.714;8.738;2023-05-09T10:22:49;2.28;;;2.08;;
10985;SDS011;5546;48.714;8.738;2023-05-09T10:25:20;2.22;;;2.03;;
10985;SDS011;5546;48.714;8.738;2023-05-09T10:27:46;2.45;;;1.90;;
10985;SDS011;5546;48.714;8.738;2023-05-09T10:30:17;2.58;;;2.20;;
10985;SDS011;5546;48.714;8.738;2023-05-09T10:35:13;2.20;;;2.00;;
10985;SDS011;5546;48.714;8.738;2023-05-09T10:37:41;2.63;;;1.90;;
10985;SDS011;5546;48.714;8.738;2023-05-09T10:40:09;1.85;;;1.75;;
10985;SDS011;5546;48.714;8.738;2023-05-09T10:42:40;3.35;;;1.95;;
10985;SDS011;5546;48.714;8.738;2023-05-09T10:45:07;1.90;;;1.80;;
10985;SDS011;5546;48.714;8.738;2023-05-09T10:47:34;2.83;;;2.50;;
10985;SDS011;5546;48.714;8.738;2023-05-09T10:50:00;2.58;;;2.30;;
10985;SDS011;5546;48.714;8.738;2023-05-09T10:53:12;2.33;;;2.03;;
10985;SDS011;5546;48.714;8.738;2023-05-09T10:55:47;2.15;;;1.88;;
10985;SDS011;5546;48.714;8.738;2023-05-09T10:58:29;5.18;;;2.30;;
10985;SDS011;5546;48.714;8.738;2023-05-09T11:01:02;1.90;;;1.80;;
10985;SDS011;5546;48.714;8.738;2023-05-09T11:14:37;2.13;;;1.95;;
10985;SDS011;5546;48.714;8.738;2023-05-09T11:17:03;2.20;;;2.00;;
10985;SDS011;5546;48.714;8.738;2023-05-09T11:19:33;4.22;;;1.90;;
10985;SDS011;5546;48.714;8.738;2023-05-09T11:22:29;2.83;;;2.47;;
10985;SDS011;5546;48.714;8.738;2023-05-09T11:25:03;2.60;;;2.40;;
10985;SDS011;5546;48.714;8.738;2023-05-09T11:27:36;2.88;;;2.60;;
10985;SDS011;5546;48.714;8.738;2023-05-09T11:30:08;3.33;;;3.00;;
10985;SDS011;5546;48.714;8.738;2023-05-09T11:32:51;3.70;;;3.40;;
10985;SDS011;5546;48.714;8.738;2023-05-09T11:35:19;4.53;;;3.17;;
10985;SDS011;5546;48.714;8.738;2023-05-09T11:37:58;4.18;;;3.05;;
10985;SDS011;5546;48.714;8.738;2023-05-09T11:40:25;5.18;;;2.85;;
10985;SDS011;5546;48.714;8.738;2023-05-09T11:42:52;3.15;;;2.92;;
10985;SDS011;5546;48.714;8.738;2023-05-09T11:45:19;4.30;;;2.67;;
10985;SDS011;5546;48.714;8.738;2023-05-09T11:47:46;6.00;;;3.13;;
10985;SDS011;5546;48.714;8.738;2023-05-09T11:50:13;3.58;;;3.28;;
10985;SDS011;5546;48.714;8.738;2023-05-09T11:52:41;3.42;;;3.05;;
10985;SDS011;5546;48.714;8.738;2023-05-09T11:55:08;3.20;;;2.90;;
10985;SDS011;5546;48.714;8.738;2023-05-09T11:57:39;3.42;;;3.10;;
10985;SDS011;5546;48.714;8.738;2023-05-09T12:00:06;3.22;;;2.97;;
10985;SDS011;5546;48.714;8.738;2023-05-09T12:02:34;3.15;;;2.70;;
10985;SDS011;5546;48.714;8.738;2023-05-09T12:05:09;3.20;;;2.90;;
10985;SDS011;5546;48.714;8.738;2023-05-09T12:07:38;5.43;;;2.35;;
10985;SDS011;5546;48.714;8.738;2023-05-09T12:10:05;2.80;;;2.50;;
10985;SDS011;5546;48.714;8.738;2023-05-09T12:12:35;2.75;;;2.28;;
10985;SDS011;5546;48.714;8.738;2023-05-09T12:15:06;2.47;;;2.28;;
10985;SDS011;5546;48.714;8.738;2023-05-09T12:17:33;2.80;;;2.60;;
10985;SDS011;5546;48.714;8.738;2023-05-09T12:19:59;3.00;;;2.20;;
10985;SDS011;5546;48.714;8.738;2023-05-09T12:22:26;2.63;;;2.28;;
10985;SDS011;5546;48.714;8.738;2023-05-09T12:24:53;2.88;;;2.10;;
10985;SDS011;5546;48.714;8.738;2023-05-09T12:27:18;3.53;;;2.30;;
10985;SDS011;5546;48.714;8.738;2023-05-09T12:29:44;3.28;;;2.92;;
10985;SDS011;5546;48.714;8.738;2023-05-09T12:32:13;3.00;;;2.60;;
10985;SDS011;5546;48.714;8.738;2023-05-09T12:34:39;2.78;;;2.38;;
10985;SDS011;5546;48.714;8.738;2023-05-09T12:37:12;3.58;;;2.33;;
10985;SDS011;5546;48.714;8.738;2023-05-09T12:39:40;2.70;;;2.50;;
10985;SDS011;5546;48.714;8.738;2023-05-09T12:42:10;3.70;;;2.80;;
10985;SDS011;5546;48.714;8.738;2023-05-09T12:44:36;3.42;;;2.33;;
10985;SDS011;5546;48.714;8.738;2023-05-09T12:47:02;2.38;;;2.17;;
10985;SDS011;5546;48.714;8.738;2023-05-09T12:49:28;2.67;;;2.47;;
10985;SDS011;5546;48.714;8.738;2023-05-09T12:51:56;2.63;;;2.42;;
10985;SDS011;5546;48.714;8.738;2023-05-09T12:54:23;2.33;;;2.13;;
10985;SDS011;5546;48.714;8.738;2023-05-09T12:56:50;3.30;;;2.30;;
10985;SDS011;5546;48.714;8.738;2023-05-09T12:59:20;2.40;;;2.20;;
10985;SDS011;5546;48.714;8.738;2023-05-09T13:01:57;4.05;;;2.63;;
10985;SDS011;5546;48.714;8.738;2023-05-09T13:04:24;2.97;;;2.35;;
10985;SDS011;5546;48.714;8.738;2023-05-09T13:06:52;3.28;;;2.47;;
10985;SDS011;5546;48.714;8.738;2023-05-09T13:09:20;2.63;;;2.42;;
10985;SDS011;5546;48.714;8.738;2023-05-09T13:11:46;2.35;;;2.20;;
10985;SDS011;5546;48.714;8.738;2023-05-09T13:14:13;4.72;;;2.30;;
10985;SDS011;5546;48.714;8.738;2023-05-09T13:16:39;2.22;;;2.03;;
10985;SDS011;5546;48.714;8.738;2023-05-09T13:19:05;3.42;;;2.00;;
10985;SDS011;5546;48.714;8.738;2023-05-09T13:21:31;2.00;;;1.90;;
10985;SDS011;5546;48.714;8.738;2023-05-09T13:23:57;2.60;;;2.40;;
10985;SDS011;5546;48.714;8.738;2023-05-09T13:26:22;3.45;;;2.35;;
10985;SDS011;5546;48.714;8.738;2023-05-09T13:28:48;2.40;;;2.10;;
10985;SDS011;5546;48.714;8.738;2023-05-09T13:31:14;3.53;;;2.15;;
10985;SDS011;5546;48.714;8.738;2023-05-09T13:33:39;4.57;;;2.15;;
10985;SDS011;5546;48.714;8.738;2023-05-09T13:36:05;2.20;;;2.00;;
10985;SDS011;5546;48.714;8.738;2023-05-09T13:38:31;4.03;;;2.40;;
10985;SDS011;5546;48.714;8.738;2023-05-09T13:41:00;3.10;;;2.50;;
10985;SDS011;5546;48.714;8.738;2023-05-09T13:43:26;2.80;;;2.60;;
10985;SDS011;5546;48.714;8.738;2023-05-09T13:45:51;5.38;;;2.30;;
10985;SDS011;5546;48.714;8.738;2023-05-09T13:48:17;2.80;;;2.47;;
10985;SDS011;5546;48.714;8.738;2023-05-09T13:50:42;3.13;;;2.83;;
10985;SDS011;5546;48.714;8.738;2023-05-09T13:53:08;3.25;;;2.50;;
10985;SDS011;5546;48.714;8.738;2023-05-09T13:55:34;2.65;;;2.30;;
10985;SDS011;5546;48.714;8.738;2023-05-09T13:57:59;2.60;;;2.20;;
10985;SDS011;5546;48.714;8.738;2023-05-09T14:00:25;2.60;;;2.40;;
10985;SDS011;5546;48.714;8.738;2023-05-09T14:02:51;3.50;;;2.45;;
10985;SDS011;5546;48.714;8.738;2023-05-09T14:05:16;2.40;;;2.10;;
10985;SDS011;5546;48.714;8.738;2023-05-09T14:07:42;3.97;;;2.08;;
10985;SDS011;5546;48.714;8.738;2023-05-09T14:10:09;4.57;;;1.90;;
10985;SDS011;5546;48.714;8.738;2023-05-09T14:12:35;2.05;;;1.77;;
10985;SDS011;5546;48.714;8.738;2023-05-09T14:15:03;3.67;;;2.10;;
10985;SDS011;5546;48.714;8.738;2023-05-09T14:17:32;2.50;;;1.90;;
10985;SDS011;5546;48.714;8.738;2023-05-09T14:19:58;3.42;;;1.90;;
10985;SDS011;5546;48.714;8.738;2023-05-09T14:22:23;3.22;;;1.92;;
10985;SDS011;5546;48.714;8.738;2023-05-09T14:24:49;3.50;;;1.83;;
10985;SDS011;5546;48.714;8.738;2023-05-09T14:27:15;4.03;;;2.28;;
10985;SDS011;5546;48.714;8.738;2023-05-09T14:29:40;2.53;;;2.22;;
10985;SDS011;5546;48.714;8.738;2023-05-09T14:32:07;3.33;;;1.90;;
10985;SDS011;5546;48.714;8.738;2023-05-09T14:34:36;3.83;;;2.10;;
10985;SDS011;5546;48.714;8.738;2023-05-09T14:37:02;2.50;;;2.22;;
10985;SDS011;5546;48.714;8.738;2023-05-09T14:39:28;4.75;;;2.15;;
10985;SDS011;5546;48.714;8.738;2023-05-09T14:41:53;2.42;;;1.92;;
10985;SDS011;5546;48.714;8.738;2023-05-09T14:44:19;2.25;;;2.05;;
10985;SDS011;5546;48.714;8.738;2023-05-09T14:46:44;2.47;;;2.00;;
10985;SDS011;5546;48.714;8.738;2023-05-09T14:49:10;4.60;;;1.73;;
10985;SDS011;5546;48.714;8.738;2023-05-09T14:51:35;2.55;;;1.77;;
10985;SDS011;5546;48.714;8.738;2023-05-09T14:54:01;3.17;;;1.63;;
10985;SDS011;5546;48.714;8.738;2023-05-09T14:56:27;2.50;;;1.90;;
10985;SDS011;5546;48.714;8.738;2023-05-09T14:58:53;2.17;;;1.98;;
10985;SDS011;5546;48.714;8.738;2023-05-09T15:01:18;3.42;;;1.70;;
10985;SDS011;5546;48.714;8.738;2023-05-09T15:03:44;2.70;;;1.90;;
10985;SDS011;5546;48.714;8.738;2023-05-09T15:06:11;2.10;;;1.90;;
10985;SDS011;5546;48.714;8.738;2023-05-09T15:08:37;2.38;;;2.00;;
10985;SDS011;5546;48.714;8.738;2023-05-09T15:11:03;1.92;;;1.75;;
10985;SDS011;5546;48.714;8.738;2023-05-09T15:13:28;4.38;;;1.88;;
10985;SDS011;5546;48.714;8.738;2023-05-09T15:15:54;3.97;;;1.90;;
10985;SDS011;5546;48.714;8.738;2023-05-09T15:18:20;1.67;;;1.58;;
10985;SDS011;5546;48.714;8.738;2023-05-09T15:20:47;4.20;;;1.70;;